AirNav   Pilot Hours Calculator
 
 1408 users online  

1FA5 Palmetto General Hospital Heliport
Hialeah, Florida, USA

GOING TO HIALEAH?


FAA INFORMATION EFFECTIVE 05 DECEMBER 2019

Location

FAA Identifier: 1FA5
Lat/Long: 25-53-11.7300N 080-19-35.8000W
25-53.195500N 080-19.596667W
25.8865917,-80.3266111
(estimated)
Elevation: 10 ft. / 3 m (estimated)
Variation: 03W (1985)
From city: 3 miles NW of HIALEAH, FL
Time zone: UTC -5 (UTC -4 during Daylight Saving Time)
Zip code: 33016

Heliport Operations

Heliport use: Private use, MEDICAL.
Activation date: 03/1977
Control tower: no
ARTCC: MIAMI CENTER
FSS: MIAMI FLIGHT SERVICE STATION
Attendance: CONTINUOUS
Wind indicator: yes
Segmented circle: yes

Heliport Communications

WX ASOS at OPF (2.9 nm NE): 125.9 (305-681-4063)
WX ASOS at MIA (6 nm S): PHONE 305-870-0235
WX ASOS at HWO (8 nm NE): PHONE 954-983-5904
WX ASOS at FLL (15 nm NE): PHONE 954-359-7857
WX ASOS at TMB (15 nm S): PHONE 305-235-1332

Nearby radio navigation aids

VOR radial/distance  VOR name  Freq  Var
DHPr017/5.3DOLPHIN VORTAC113.9004W
VKZr315/12.3VIRGINIA KEY VOR/DME117.1004W
FLLr224/14.2FORT LAUDERDALE VOR/DME114.4006W

Heliport Services

Runway Information

Helipad H1

Dimensions: 50 x 50 ft. / 15 x 15 m
Surface: concrete, in fair condition
Latitude: 25-53.195500N
Longitude: 080-19.596667W
Elevation: 10.0 ft.
Traffic pattern: leftleft
Markings: none, in fair condition

Heliport Ownership and Management from official FAA records

Ownership: Privately-owned
Owner: PALMETTO GENERAL HOSPITAL
2001 WEST 68 ST
HIALEAH, FL 33016
Phone (305) 364-2100
Manager: DIRECTOR OF FACILITIES
PALMETTO GENERAL HOSPITAL, 2001 WEST 68TH ST
HIALEAH, FL 33016
Phone (305) 823-5000
EXT: 6434

Additional Remarks

FOR CD CTC MIAMI APCH AT 305-869-5432.

Instrument Procedures

There are no published instrument procedures at 1FA5.

Some nearby airports with instrument procedures:

KOPF - Miami-Opa Locka Executive Airport (3 nm NE)
KMIA - Miami International Airport (6 nm S)
KHWO - North Perry Airport (8 nm NE)
KFLL - Fort Lauderdale/Hollywood International Airport (15 nm NE)
KTMB - Miami Executive Airport (15 nm S)
 
Loc | Ops | Rwys | IFR | FBO | Links
Com | Nav | Svcs | Stats | Notes

Reliance Aviation
AirBoss

 
Area around 1FA5 (Palmetto General Hospital Heliport)
 
Road maps at: MapQuest Bing Google
 
Aerial photo
No photo
 
Sectional chart

 
Airport distance calculator
Flying to Palmetto General Hospital Heliport? Find the distance to fly.

From to 1FA5

Sunrise and sunset
Times for 06-Dec-2019
 Local
(UTC-5)
 Zulu
(UTC)
Morning civil twilight06:3111:31
Sunrise06:5611:56
Sunset17:2922:29
Evening civil twilight17:5422:54

Current date and time
Zulu (UTC)  06-Dec-2019 17:14:29
Local (UTC-5)  06-Dec-2019 12:14:29
 
METAR
KOPF 
3nm NE 
061653Z 13007KT 10SM FEW043 26/14 A3016 RMK AO2 SLP212 T02560144 $
KMIA 
6nm S 
061653Z 10008KT 10SM FEW045 FEW250 25/12 A3015 RMK AO2 SLP211 T02500122
KHWO 
8nm NE 
061653Z 09006KT 10SM SCT039 26/14 A3016 RMK AO2 SLP213 T02610139 $
KFLL 
14nm NE 
061653Z 12006G19KT 10SM SCT043 SCT050 26/15 A3014 RMK AO2 SLP206 T02610150 $
KTMB 
15nm S 
061653Z 11009KT 10SM CLR 25/14 A3015 RMK AO2 SLP210 T02500144
TAF
KOPF 
3nm NE 
061456Z 0615/0712 35005KT P6SM FEW040 FM061600 12006KT P6SM FEW035 SCT250 FM070000 VRB03KT P6SM SCT250
KMIA 
6nm S 
061457Z 0615/0718 VRB04KT P6SM SCT250 FM061600 12008KT P6SM FEW035 SCT250 FM070000 VRB03KT P6SM SCT250 FM071600 09008KT P6SM SCT250
KFLL 
14nm NE 
061456Z 0615/0718 33005KT P6SM FEW050 SCT250 FM061600 12008KT P6SM FEW035 SCT250 FM070100 VRB03KT P6SM SCT250 FM071600 08008KT P6SM SCT250
KTMB 
15nm S 
061457Z 0615/0712 VRB03KT P6SM FEW040 FM061600 12006KT P6SM FEW250 FM070000 VRB03KT P6SM FEW250
NOTAMs
Click for the latest NOTAMs
NOTAMs are issued by the DoD/FAA and will open in a separate window not controlled by AirNav.

 

 
 

Would you like to see your business listed on this page?

 If your business provides an interesting product or service to pilots, flight crews, aircraft, or users of the Palmetto General Hospital Heliport, you should consider listing it here.  To start the listing process, click on the button below
 
Add a business
 

Other Pages about Palmetto General Hospital Heliport

Update a link
 
Copyright © AirNav, LLC. All rights reserved. Privacy Policy  Contact